createdAt,value
2023-05-24T00:01:16.946Z,100413.59
2023-05-24T00:06:26.460Z,100406.56
2023-05-24T00:11:32.853Z,100402.84
2023-05-24T00:16:39.221Z,100404.25
2023-05-24T00:21:47.254Z,100395.50
2023-05-24T00:26:53.750Z,100396.31
2023-05-24T00:32:00.345Z,100403.09
2023-05-24T00:37:08.570Z,100401.78
2023-05-24T00:42:14.832Z,100405.47
2023-05-24T00:47:21.435Z,100398.97
2023-05-24T00:52:29.468Z,100395.13
2023-05-24T00:57:37.390Z,100395.22
2023-05-24T01:02:44.255Z,100400.00
2023-05-24T01:08:04.748Z,100388.06
2023-05-24T01:13:25.979Z,100392.81
2023-05-24T01:18:37.043Z,100387.00
2023-05-24T01:24:00.065Z,100393.13
2023-05-24T01:34:32.722Z,100400.44
2023-05-24T01:39:39.484Z,100402.22
2023-05-24T01:44:57.541Z,100402.78
2023-05-24T01:50:13.227Z,100401.81
2023-05-24T01:55:20.531Z,100393.41
2023-05-24T02:00:30.581Z,100398.94
2023-05-24T02:05:38.122Z,100397.00
2023-05-24T02:10:46.035Z,100402.28
2023-05-24T02:15:55.332Z,100403.34
2023-05-24T02:21:02.123Z,100398.09
2023-05-24T02:26:11.821Z,100396.91
2023-05-24T02:31:20.262Z,100398.66
2023-05-24T02:36:27.099Z,100404.94
2023-05-24T02:41:34.067Z,100402.78
2023-05-24T02:46:42.222Z,100411.38
2023-05-24T02:51:48.649Z,100417.75
2023-05-24T02:56:57.163Z,100422.28
2023-05-24T03:02:06.260Z,100425.44
2023-05-24T03:07:13.098Z,100420.34
2023-05-24T03:12:19.793Z,100417.31
2023-05-24T03:17:28.156Z,100425.84
2023-05-24T03:22:34.983Z,100421.84
2023-05-24T03:27:41.657Z,100431.25
2023-05-24T03:32:50.459Z,100436.78
2023-05-24T03:37:57.476Z,100435.38
2023-05-24T03:43:04.678Z,100425.19
2023-05-24T03:48:41.930Z,100434.09
2023-05-24T03:53:48.654Z,100438.31
2023-05-24T03:58:55.188Z,100440.78
2023-05-24T04:04:03.248Z,100440.31
2023-05-24T04:09:10.467Z,100446.09
2023-05-24T04:14:17.381Z,100441.56
2023-05-24T04:19:25.822Z,100448.78
2023-05-24T04:24:32.359Z,100452.00
2023-05-24T04:29:39.530Z,100458.13
2023-05-24T04:34:48.484Z,100462.34
2023-05-24T04:39:55.102Z,100469.31
2023-05-24T04:45:02.474Z,100473.56
2023-05-24T04:50:13.898Z,100472.84
2023-05-24T04:55:20.917Z,100476.41
2023-05-24T05:00:27.696Z,100477.63
2023-05-24T05:05:35.855Z,100469.75
2023-05-24T05:10:43.120Z,100476.25
2023-05-24T05:15:51.161Z,100480.53
2023-05-24T05:20:59.257Z,100480.38
2023-05-24T05:26:05.704Z,100486.50
2023-05-24T05:31:15.265Z,100496.25
2023-05-24T05:36:23.927Z,100495.50
2023-05-24T05:41:30.318Z,100505.13
2023-05-24T05:46:36.879Z,100510.13
2023-05-24T05:51:44.726Z,100517.66
2023-05-24T05:56:51.424Z,100515.72
2023-05-24T06:01:58.006Z,100522.47
2023-05-24T06:07:06.092Z,100522.97
2023-05-24T06:12:12.601Z,100518.97
2023-05-24T06:17:19.056Z,100531.13
2023-05-24T06:22:28.820Z,100537.97
2023-05-24T06:27:35.664Z,100545.13
2023-05-24T06:32:42.500Z,100546.59
2023-05-24T06:37:51.099Z,100553.44
2023-05-24T06:42:59.143Z,100557.06
2023-05-24T06:48:05.985Z,100559.34
2023-05-24T06:53:14.110Z,100563.69
2023-05-24T06:58:20.501Z,100569.06
2023-05-24T07:03:26.814Z,100562.25
2023-05-24T07:08:35.224Z,100566.97
2023-05-24T07:13:41.805Z,100573.59
2023-05-24T07:18:48.414Z,100579.28
2023-05-24T07:23:56.205Z,100592.31
2023-05-24T07:29:02.801Z,100598.72
2023-05-24T07:34:09.754Z,100597.94
2023-05-24T07:39:18.061Z,100602.69
2023-05-24T07:44:25.490Z,100614.91
2023-05-24T07:49:31.938Z,100611.31
2023-05-24T07:54:39.720Z,100614.72
2023-05-24T07:59:46.386Z,100623.78
2023-05-24T08:04:52.851Z,100633.44
2023-05-24T08:10:01.001Z,100624.84
2023-05-24T08:15:10.693Z,100634.66
2023-05-24T08:20:18.317Z,100645.25
2023-05-24T08:25:27.605Z,100650.00
2023-05-24T08:30:33.954Z,100653.19
2023-05-24T08:35:40.678Z,100653.13
2023-05-24T08:40:49.939Z,100665.88
2023-05-24T08:45:59.740Z,100663.78
2023-05-24T08:51:07.247Z,100672.56
2023-05-24T08:56:17.636Z,100672.75
2023-05-24T09:01:26.607Z,100685.75
2023-05-24T09:06:36.364Z,100673.06
2023-05-24T09:11:46.715Z,100676.69
2023-05-24T09:16:53.353Z,100672.69
2023-05-24T09:22:01.168Z,100682.50
2023-05-24T09:27:10.033Z,100683.47
2023-05-24T09:32:16.801Z,100683.28
2023-05-24T09:37:31.010Z,100697.81
2023-05-24T09:42:40.408Z,100703.31
2023-05-24T09:47:47.887Z,100702.75
2023-05-24T09:52:56.579Z,100708.47
2023-05-24T09:58:08.776Z,100715.88
2023-05-24T10:03:15.586Z,100709.06
2023-05-24T10:08:23.003Z,100710.09
2023-05-24T10:13:31.324Z,100716.19
2023-05-24T10:18:38.392Z,100710.03
2023-05-24T10:23:47.025Z,100713.59
2023-05-24T10:29:03.037Z,100719.88
2023-05-24T10:34:11.037Z,100723.81
2023-05-24T10:39:18.056Z,100730.56
2023-05-24T10:44:32.266Z,100727.41
2023-05-24T10:49:40.184Z,100725.75
2023-05-24T10:55:08.554Z,100725.63
2023-05-24T11:00:36.041Z,100726.09
2023-05-24T11:05:54.946Z,100722.41
2023-05-24T11:16:40.680Z,100725.97
2023-05-24T11:21:48.998Z,100735.28
2023-05-24T11:26:57.589Z,100738.22
2023-05-24T11:32:06.561Z,100739.69
2023-05-24T11:37:16.099Z,100730.75
2023-05-24T11:42:24.731Z,100736.41
2023-05-24T11:47:32.856Z,100733.00
2023-05-24T11:52:42.473Z,100742.66
2023-05-24T11:57:56.739Z,100745.44
2023-05-24T12:03:08.935Z,100745.44
2023-05-24T12:08:17.256Z,100739.88
2023-05-24T12:13:27.332Z,100735.13
2023-05-24T12:18:45.826Z,100735.13
2023-05-24T12:23:58.767Z,100739.03
2023-05-24T12:29:07.389Z,100739.75
2023-05-24T12:34:17.759Z,100733.59
2023-05-24T12:39:31.786Z,100734.75
2023-05-24T12:44:40.182Z,100726.22
2023-05-24T13:02:31.698Z,100722.38
2023-05-24T13:07:39.430Z,100725.63
2023-05-24T13:12:46.664Z,100722.69
2023-05-24T13:17:55.180Z,100729.00
2023-05-24T13:23:01.780Z,100722.34
2023-05-24T13:28:08.151Z,100720.81
2023-05-24T13:33:16.160Z,100722.75
2023-05-24T13:38:23.697Z,100722.13
2023-05-24T13:43:30.280Z,100724.19
2023-05-24T13:48:39.064Z,100720.16
2023-05-24T13:53:46.677Z,100717.47
2023-05-24T13:58:53.932Z,100718.34
2023-05-24T14:04:04.169Z,100718.16
2023-05-24T14:09:11.250Z,100718.41
2023-05-24T14:14:57.175Z,100711.41
2023-05-24T14:19:45.704Z,100711.56
2023-05-24T14:24:52.275Z,100711.34
2023-05-24T14:29:59.005Z,100713.66
2023-05-24T14:35:08.100Z,100717.44
2023-05-24T14:40:18.347Z,100724.00
2023-05-24T14:45:27.168Z,100721.75
2023-05-24T14:50:35.398Z,100727.19
2023-05-24T14:55:43.790Z,100729.19
2023-05-24T15:00:51.542Z,100726.31
2023-05-24T15:05:59.823Z,100726.81
2023-05-24T15:11:06.668Z,100734.25
2023-05-24T15:16:13.421Z,100730.84
2023-05-24T15:21:21.824Z,100730.84
2023-05-24T15:26:28.474Z,100743.63
2023-05-24T15:31:35.729Z,100744.97
2023-05-24T15:36:44.071Z,100744.41
2023-05-24T15:41:50.668Z,100747.34
2023-05-24T15:46:57.530Z,100761.94
2023-05-24T15:52:05.830Z,100762.09
2023-05-24T15:57:13.108Z,100762.31
2023-05-24T16:02:21.466Z,100765.19
2023-05-24T16:07:29.206Z,100783.31
2023-05-24T16:12:36.033Z,100796.00
2023-05-24T16:17:45.201Z,100800.19
2023-05-24T16:22:54.527Z,100808.75
2023-05-24T16:28:01.376Z,100821.97
2023-05-24T16:33:08.564Z,100842.00
2023-05-24T16:38:16.918Z,100854.03
2023-05-24T16:43:23.529Z,100870.53
2023-05-24T16:48:32.054Z,100873.31
2023-05-24T16:53:41.100Z,100865.53
2023-05-24T16:58:47.842Z,100872.41
2023-05-24T17:03:54.578Z,100891.16
2023-05-24T17:09:02.636Z,100900.38
2023-05-24T17:14:09.421Z,100903.13
2023-05-24T17:19:15.823Z,100910.34
2023-05-24T17:24:27.805Z,100905.09
2023-05-24T17:29:34.901Z,100910.63
2023-05-24T17:34:42.199Z,100922.91
2023-05-24T17:39:52.707Z,100924.56
2023-05-24T17:44:59.270Z,100927.53
2023-05-24T17:50:06.606Z,100938.31
2023-05-24T17:55:15.104Z,100945.78
2023-05-24T18:00:23.243Z,100942.75
2023-05-24T18:05:30.328Z,100951.03
2023-05-24T18:10:38.612Z,100952.00
2023-05-24T18:15:45.634Z,100963.41
2023-05-24T18:20:53.207Z,100967.28
2023-05-24T18:26:03.213Z,100962.69
2023-05-24T18:31:12.474Z,100964.97
2023-05-24T18:36:19.340Z,100975.44
2023-05-24T18:41:28.244Z,100969.94
2023-05-24T18:46:36.913Z,100988.09
2023-05-24T18:51:43.964Z,100996.63
2023-05-24T18:56:52.953Z,100999.66
2023-05-24T19:02:01.368Z,101006.50
2023-05-24T19:07:09.715Z,101011.53
2023-05-24T19:12:18.625Z,101013.88
2023-05-24T19:17:25.886Z,101016.59
2023-05-24T19:22:32.790Z,101021.25
2023-05-24T19:27:51.209Z,101025.00
2023-05-24T19:33:07.106Z,101030.09
2023-05-24T19:38:15.728Z,101037.47
2023-05-24T19:43:23.957Z,101034.34
2023-05-24T21:02:51.153Z,101068.03
2023-05-24T21:07:58.373Z,101067.66
2023-05-24T21:13:05.122Z,101084.41
2023-05-24T21:18:13.255Z,101088.84
2023-05-24T21:23:19.830Z,101080.19
2023-05-24T21:28:26.156Z,101080.09
2023-05-24T21:33:34.111Z,101088.91
2023-05-24T21:38:42.487Z,101097.38
2023-05-24T21:43:48.993Z,101091.44
2023-05-24T21:48:57.506Z,101103.19
2023-05-24T21:54:03.989Z,101106.06
2023-05-24T21:59:10.867Z,101114.31
2023-05-24T22:04:19.231Z,101108.25
2023-05-24T22:09:25.964Z,101105.00
2023-05-24T22:14:32.475Z,101107.03
2023-05-24T22:19:41.564Z,101103.88
2023-05-24T22:24:48.795Z,101101.53
2023-05-24T22:29:55.258Z,101102.41
2023-05-24T22:35:03.539Z,101100.94
2023-05-24T22:40:13.153Z,101109.22
2023-05-24T22:45:19.996Z,101105.91
2023-05-24T22:50:28.061Z,101107.19
2023-05-24T22:55:34.717Z,101104.59
2023-05-24T23:00:41.149Z,101106.56
2023-05-24T23:05:49.369Z,101113.50
2023-05-24T23:10:58.602Z,101112.94
2023-05-24T23:16:05.790Z,101120.97
2023-05-24T23:21:14.859Z,101119.53
2023-05-24T23:26:21.627Z,101125.94
2023-05-24T23:31:28.284Z,101127.84
2023-05-24T23:36:36.926Z,101132.53
2023-05-24T23:41:43.307Z,101143.16
2023-05-24T23:46:49.774Z,101140.97
2023-05-24T23:51:57.831Z,101146.34
2023-05-24T23:57:04.919Z,101155.34
